Time;durP1;ratioP1;P1;durP2;ratioP2;P2;SDS_P1;SDS_P2;PMS_P1;PMS_P2;Temp;Humidity;BMP_temperature;BMP_pressure;BME280_temperature;BME280_humidity;BME280_pressure;Samples;Min_cycle;Max_cycle;Signal;HPM_P1;HPM_P2
2023/05/30 00:01:22;;;;;;;20.75;14.00;;;;;;;;;;5028114;28;20024;-57
2023/05/30 00:03:49;;;;;;;18.92;13.40;;;409.70;2355.20;;;;;;5028735;28;20079;-56
2023/05/30 00:06:15;;;;;;;17.65;12.50;;;384.80;2329.60;;;;;;5028417;28;20033;-55
2023/05/30 00:08:42;;;;;;;19.08;15.25;;;384.70;2329.60;;;;;;5028431;28;20057;-56
2023/05/30 00:11:09;;;;;;;17.95;14.00;;;384.70;2329.60;;;;;;5028380;28;20569;-56
2023/05/30 00:13:35;;;;;;;17.85;13.98;;;384.60;2329.60;;;;;;5028578;28;20364;-56
2023/05/30 00:16:03;;;;;;;17.30;12.50;;;384.60;2329.60;;;;;;5028182;28;20025;-57
2023/05/30 00:18:34;;;;;;;18.88;12.85;;;384.60;2329.60;;;;;;5030426;28;20022;-55
2023/05/30 00:21:05;;;;;;;17.15;13.18;;;384.60;2329.60;;;;;;5032587;28;20022;-56
2023/05/30 00:23:32;;;;;;;18.45;13.90;;;384.70;2329.60;;;;;;5032293;28;20471;-56
2023/05/30 00:25:59;;;;;;;14.60;12.55;;;384.80;2329.60;;;;;;5032756;28;20425;-56
2023/05/30 00:28:25;;;;;;;17.50;13.65;;;384.80;2329.60;;;;;;5032166;28;20026;-57
2023/05/30 00:30:52;;;;;;;17.40;14.60;;;384.90;2329.60;;;;;;5032123;28;20067;-57
2023/05/30 00:33:17;;;;;;;17.75;13.50;;;409.60;2355.20;;;;;;5019239;28;20483;-58
2023/05/30 00:35:43;;;;;;;15.68;12.13;;;409.70;2355.20;;;;;;5032524;28;20091;-58
2023/05/30 00:38:09;;;;;;;19.50;13.18;;;409.70;2355.20;;;;;;5018970;28;20021;-55
2023/05/30 00:40:35;;;;;;;16.65;12.45;;;409.80;2355.20;;;;;;5032161;28;20516;-59
2023/05/30 00:43:00;;;;;;;14.60;12.13;;;409.90;2355.20;;;;;;5032004;28;20025;-56
2023/05/30 00:45:26;;;;;;;24.92;12.43;;;409.90;2355.20;;;;;;5031971;28;20033;-58
2023/05/30 00:47:53;;;;;;;14.63;12.48;;;409.90;2355.20;;;;;;5032028;28;20389;-56
2023/05/30 00:50:19;;;;;;;13.35;11.70;;;410.30;2355.20;;;;;;5032583;28;20108;-55
2023/05/30 00:52:48;;;;;;;18.13;13.02;;;409.90;2355.20;;;;;;5032139;28;20075;-55
2023/05/30 00:55:16;;;;;;;14.13;12.07;;;409.90;2355.20;;;;;;5031809;28;20447;-58
2023/05/30 00:57:43;;;;;;;17.00;12.07;;;409.70;2355.20;;;;;;5031976;28;20032;-57
2023/05/30 01:00:13;;;;;;;20.90;12.77;;;409.60;2355.20;;;;;;5031952;28;20470;-56
2023/05/30 01:02:40;;;;;;;18.85;13.55;;;384.80;2329.60;;;;;;5032064;28;20013;-58
2023/05/30 01:05:06;;;;;;;15.52;12.75;;;384.70;2329.60;;;;;;5031399;28;20037;-55
2023/05/30 01:07:33;;;;;;;17.15;13.52;;;384.60;2329.60;;;;;;5031327;28;20087;-53
2023/05/30 01:10:00;;;;;;;18.52;13.18;;;384.60;2329.60;;;;;;5031563;28;20105;-57
2023/05/30 01:12:40;;;;;;;16.13;13.77;;;384.40;2329.60;;;;;;5031763;28;20515;-56
2023/05/30 01:15:19;;;;;;;18.67;13.30;;;384.40;2329.60;;;;;;5031699;28;20365;-56
2023/05/30 01:17:57;;;;;;;20.42;13.70;;;384.40;2329.60;;;;;;5031081;28;20116;-58
2023/05/30 01:20:25;;;;;;;19.40;13.85;;;384.30;2329.60;;;;;;5031426;28;20026;-55
2023/05/30 01:23:20;;;;;;;19.30;14.57;;;384.20;2329.60;;;;;;5031182;28;20037;-58
2023/05/30 01:26:14;;;;;;;15.73;13.10;;;384.20;2329.60;;;;;;5018711;28;20109;-55
2023/05/30 01:28:42;;;;;;;18.10;14.05;;;384.20;2329.60;;;;;;5031269;28;20026;-56
2023/05/30 01:31:09;;;;;;;16.60;12.80;;;384.20;2329.60;;;;;;5030052;28;20022;-56
2023/05/30 01:33:37;;;;;;;17.13;14.50;;;384.10;2329.60;;;;;;5031283;28;20028;-57
2023/05/30 01:36:03;;;;;;;17.70;13.35;;;384.10;2329.60;;;;;;5030875;28;20083;-56
2023/05/30 01:38:28;;;;;;;17.13;13.70;;;384.10;2329.60;;;;;;5030879;28;20120;-55
2023/05/30 01:40:57;;;;;;;16.38;13.60;;;384.30;2329.60;;;;;;5031126;28;20430;-59
2023/05/30 01:44:01;;;;;;;16.25;12.27;;;384.40;2329.60;;;;;;5030896;28;20056;-56
2023/05/30 01:46:38;;;;;;;16.67;13.10;;;384.50;2329.60;;;;;;5030512;28;20116;-58
2023/05/30 01:49:15;;;;;;;17.02;13.27;;;384.60;2329.60;;;;;;5030748;28;20475;-55
2023/05/30 01:51:58;;;;;;;15.35;11.77;;;384.70;2329.60;;;;;;5018452;28;20463;-57
2023/05/30 01:54:26;;;;;;;21.55;12.57;;;384.70;2329.60;;;;;;5030133;28;20029;-56
2023/05/30 01:56:55;;;;;;;16.05;12.23;;;384.70;2329.60;;;;;;5030717;28;20028;-57
2023/05/30 01:59:25;;;;;;;16.13;12.82;;;384.70;2329.60;;;;;;5030601;28;20061;-57
2023/05/30 02:01:53;;;;;;;16.48;12.70;;;384.70;2329.60;;;;;;5017234;28;20023;-59
2023/05/30 02:04:19;;;;;;;14.30;12.75;;;384.70;2329.60;;;;;;5030753;28;20041;-56
2023/05/30 02:06:45;;;;;;;18.23;12.73;;;384.70;2329.60;;;;;;5030704;28;20531;-56
2023/05/30 02:09:10;;;;;;;15.25;12.63;;;384.70;2329.60;;;;;;5030167;28;20064;-56
2023/05/30 02:11:37;;;;;;;16.27;12.60;;;384.80;2329.60;;;;;;5030732;28;20113;-56
2023/05/30 02:14:04;;;;;;;15.30;13.27;;;384.80;2329.60;;;;;;5030284;28;20426;-55
2023/05/30 02:16:31;;;;;;;18.75;13.55;;;384.60;2329.60;;;;;;5030096;28;20018;-57
2023/05/30 02:18:57;;;;;;;15.52;13.45;;;384.70;2329.60;;;;;;5030064;28;20128;-56
2023/05/30 02:21:22;;;;;;;17.23;14.63;;;384.70;2329.60;;;;;;5030479;28;20022;-57
2023/05/30 02:23:49;;;;;;;18.05;14.30;;;384.70;2329.60;;;;;;5030380;28;20052;-55
2023/05/30 02:26:15;;;;;;;17.05;13.38;;;384.70;2329.60;;;;;;5030303;28;20387;-55
2023/05/30 02:28:41;;;;;;;18.42;13.23;;;384.60;2329.60;;;;;;5029853;28;20025;-56
2023/05/30 02:31:06;;;;;;;22.73;15.48;;;384.50;2329.60;;;;;;5030163;28;20037;-56
2023/05/30 02:33:32;;;;;;;18.45;12.27;;;384.40;2329.60;;;;;;5030050;28;20423;-55
2023/05/30 02:35:58;;;;;;;18.73;13.02;;;384.40;2329.60;;;;;;5030150;28;20053;-55
2023/05/30 02:38:24;;;;;;;18.33;13.52;;;384.40;2329.60;;;;;;5029889;28;20404;-59
2023/05/30 02:40:49;;;;;;;15.73;12.82;;;384.40;2329.60;;;;;;5029890;28;20518;-58
2023/05/30 02:43:15;;;;;;;17.73;13.77;;;384.30;2329.60;;;;;;5029561;28;20025;-57
2023/05/30 02:45:42;;;;;;;20.63;13.57;;;384.20;2329.60;;;;;;5029630;28;20045;-57
2023/05/30 02:48:08;;;;;;;16.30;14.50;;;384.10;2329.60;;;;;;5029282;28;20021;-55
2023/05/30 02:50:34;;;;;;;25.38;15.55;;;384.00;2329.60;;;;;;5029576;28;20424;-56
2023/05/30 02:53:01;;;;;;;34.90;20.23;;;359.30;2329.60;;;;;;5029681;28;20049;-57
2023/05/30 02:55:26;;;;;;;23.50;16.75;;;359.20;2329.60;;;;;;5029441;28;20140;-58
2023/05/30 02:57:52;;;;;;;25.27;16.40;;;359.10;2329.60;;;;;;5029833;28;20025;-56
2023/05/30 03:00:20;;;;;;;20.77;15.82;;;359.00;2329.60;;;;;;5029684;28;20052;-59
2023/05/30 03:02:46;;;;;;;20.92;15.52;;;359.10;2329.60;;;;;;5029207;28;20388;-56
2023/05/30 03:05:12;;;;;;;19.15;14.73;;;359.10;2329.60;;;;;;5029159;28;20033;-60
2023/05/30 03:07:38;;;;;;;22.40;16.55;;;359.00;2329.60;;;;;;5029210;28;20022;-56
2023/05/30 03:10:04;;;;;;;20.25;15.82;;;359.00;2329.60;;;;;;5029282;28;20033;-60
2023/05/30 03:12:30;;;;;;;27.10;16.52;;;359.10;2329.60;;;;;;5029000;28;20037;-56
2023/05/30 03:14:56;;;;;;;19.45;16.05;;;359.10;2329.60;;;;;;5029608;28;20061;-55
2023/05/30 03:17:22;;;;;;;19.98;14.35;;;359.10;2329.60;;;;;;5029197;28;20104;-59
2023/05/30 03:19:48;;;;;;;18.23;14.38;;;359.30;2329.60;;;;;;5029282;28;20040;-56
2023/05/30 03:22:14;;;;;;;20.30;15.13;;;384.00;2329.60;;;;;;5029205;28;20044;-57
2023/05/30 03:24:39;;;;;;;21.55;13.88;;;384.20;2329.60;;;;;;5028897;28;20694;-55
2023/05/30 03:27:07;;;;;;;15.63;13.05;;;384.30;2329.60;;;;;;5029295;28;20076;-54
2023/05/30 03:29:33;;;;;;;21.20;14.77;;;384.40;2329.60;;;;;;5029173;28;20100;-55
2023/05/30 03:31:59;;;;;;;18.63;13.35;;;384.50;2329.60;;;;;;5028410;28;20032;-57
2023/05/30 03:34:25;;;;;;;24.45;13.60;;;384.60;2329.60;;;;;;5028900;28;20025;-56
2023/05/30 03:36:52;;;;;;;20.40;14.15;;;384.60;2329.60;;;;;;5028864;28;20029;-55
2023/05/30 03:39:21;;;;;;;17.73;12.25;;;384.70;2278.40;;;;;;5028801;28;20049;-57
2023/05/30 03:41:47;;;;;;;20.17;13.45;;;409.60;2355.20;;;;;;5028820;28;20085;-57
2023/05/30 03:44:13;;;;;;;16.30;12.88;;;409.70;2355.20;;;;;;5028533;28;20037;-57
2023/05/30 03:46:40;;;;;;;17.45;12.98;;;409.90;2355.20;;;;;;5028946;28;20026;-56
2023/05/30 03:49:05;;;;;;;14.38;12.52;;;410.00;2355.20;;;;;;5028696;28;20058;-55
2023/05/30 03:51:33;;;;;;;17.05;12.80;;;410.30;2355.20;;;;;;5028565;28;20022;-57
2023/05/30 03:53:58;;;;;;;15.07;11.38;;;410.30;2355.20;;;;;;5028370;28;20033;-55
2023/05/30 03:56:25;;;;;;;14.38;11.82;;;410.30;2355.20;;;;;;5028374;28;20022;-55
2023/05/30 03:58:52;;;;;;;13.63;11.00;;;410.50;2355.20;;;;;;5028790;28;20025;-56
2023/05/30 04:01:18;;;;;;;13.13;11.73;;;410.50;2355.20;;;;;;5028396;28;20483;-57
2023/05/30 04:03:45;;;;;;;16.23;11.82;;;410.50;2355.20;;;;;;5027932;28;20056;-54
2023/05/30 04:06:11;;;;;;;13.52;11.02;;;435.30;2355.20;;;;;;5028143;28;20037;-57
2023/05/30 04:08:39;;;;;;;13.23;10.15;;;435.40;2355.20;;;;;;5028486;28;20057;-56
2023/05/30 04:11:06;;;;;;;13.60;11.57;;;435.60;2355.20;;;;;;5015389;28;20022;-58
2023/05/30 04:13:32;;;;;;;15.27;12.15;;;435.60;2355.20;;;;;;5027790;28;20057;-57
2023/05/30 04:15:59;;;;;;;12.43;11.15;;;435.70;2355.20;;;;;;5015053;28;20060;-57
2023/05/30 04:18:25;;;;;;;12.70;9.98;;;435.90;2355.20;;;;;;5027706;28;20475;-56
2023/05/30 04:20:51;;;;;;;14.55;11.57;;;460.80;2380.80;;;;;;5028516;28;20033;-56
2023/05/30 04:23:17;;;;;;;16.33;10.80;;;460.90;2380.80;;;;;;5028163;28;20033;-59
2023/05/30 04:25:44;;;;;;;14.00;10.52;;;461.20;2380.80;;;;;;5028327;28;20030;-56
2023/05/30 04:28:16;;;;;;;10.98;9.18;;;461.20;2380.80;;;;;;5028392;28;20514;-56
2023/05/30 04:30:49;;;;;;;15.35;10.57;;;461.10;2380.80;;;;;;5028530;28;20021;-58
2023/05/30 04:33:19;;;;;;;15.23;9.50;;;461.40;2380.80;;;;;;5027869;28;20034;-56
2023/05/30 04:35:45;;;;;;;11.77;10.25;;;486.80;2380.80;;;;;;5028179;28;20492;-56
2023/05/30 04:38:16;;;;;;;12.45;9.48;;;512.20;2380.80;;;;;;5027792;28;20044;-57
2023/05/30 04:40:42;;;;;;;11.27;9.20;;;512.30;2380.80;;;;;;5028309;28;20036;-56
2023/05/30 04:43:08;;;;;;;13.13;10.32;;;512.40;2380.80;;;;;;5027981;28;20057;-59
2023/05/30 04:45:36;;;;;;;13.18;10.18;;;512.50;2380.80;;;;;;5027827;28;20499;-57
2023/05/30 04:48:03;;;;;;;11.68;8.98;;;512.40;2380.80;;;;;;5027966;28;20029;-57
2023/05/30 04:50:29;;;;;;;13.85;9.50;;;512.30;2380.80;;;;;;5028160;28;20471;-57
2023/05/30 04:52:55;;;;;;;13.52;10.32;;;512.10;2380.80;;;;;;5028139;28;20052;-57
2023/05/30 04:55:21;;;;;;;13.65;10.40;;;512.00;2380.80;;;;;;5028010;28;20128;-56
2023/05/30 04:57:47;;;;;;;11.30;10.13;;;512.00;2380.80;;;;;;5028195;28;20519;-61
2023/05/30 05:00:16;;;;;;;18.58;10.85;;;487.30;2380.80;;;;;;5027801;28;20028;-56
2023/05/30 05:02:43;;;;;;;17.30;10.82;;;487.30;2380.80;;;;;;5027649;28;20476;-56
2023/05/30 05:05:09;;;;;;;19.15;11.00;;;512.00;2380.80;;;;;;5030135;28;20487;-56
2023/05/30 05:07:35;;;;;;;17.55;11.40;;;512.00;2380.80;;;;;;5031545;28;20030;-56
2023/05/30 05:10:02;;;;;;;20.63;11.75;;;512.10;2380.80;;;;;;5031670;28;20434;-56
2023/05/30 05:12:27;;;;;;;16.38;10.93;;;512.40;2380.80;;;;;;5031646;28;20133;-56
2023/05/30 05:14:55;;;;;;;11.80;10.57;;;512.70;2380.80;;;;;;5031504;28;20104;-58
2023/05/30 05:17:20;;;;;;;15.40;11.30;;;512.80;2380.80;;;;;;5031029;28;20031;-57
2023/05/30 05:19:46;;;;;;;14.55;11.52;;;512.90;2380.80;;;;;;5031668;28;20029;-58
2023/05/30 05:22:12;;;;;;;17.65;11.43;;;512.90;2380.80;;;;;;5031299;28;20075;-55
2023/05/30 05:24:38;;;;;;;15.95;10.85;;;537.60;2406.40;;;;;;5031219;28;20045;-55
2023/05/30 05:27:03;;;;;;;14.23;9.60;;;538.10;2406.40;;;;;;5031266;28;20021;-55
2023/05/30 05:29:29;;;;;;;13.02;11.00;;;564.10;2432.00;;;;;;5031753;28;20086;-56
2023/05/30 05:31:55;;;;;;;12.52;9.88;;;614.50;2432.00;;;;;;5031123;28;20551;-57
2023/05/30 05:34:21;;;;;;;10.73;9.73;;;614.70;2432.00;;;;;;5031353;28;20061;-57
2023/05/30 05:36:47;;;;;;;13.60;12.05;;;;;;;;;;5018445;28;20073;-58
2023/05/30 05:39:13;;;;;;;13.52;10.63;;;;;;;;;;5031264;28;20434;-57
2023/05/30 05:41:40;;;;;;;15.40;10.20;;;;;;;;;;5031601;28;20083;-57
2023/05/30 05:44:06;;;;;;;12.57;10.93;;;;;;;;;;5031376;28;20066;-57
2023/05/30 05:46:32;;;;;;;14.00;12.05;;;;;;;;;;5030441;28;20013;-57
2023/05/30 05:48:58;;;;;;;12.80;10.13;;;;;;;;;;5030504;28;20810;-57
2023/05/30 05:51:23;;;;;;;13.07;10.45;;;615.20;2432.00;;;;;;5030436;28;20021;-56
2023/05/30 05:53:49;;;;;;;11.80;10.55;;;615.30;2432.00;;;;;;5030416;28;20033;-56
2023/05/30 05:56:15;;;;;;;18.70;10.27;;;665.60;2432.00;;;;;;5030450;28;20032;-56
2023/05/30 05:58:40;;;;;;;11.73;10.35;;;691.30;2355.20;;;;;;5030505;28;20053;-57
2023/05/30 06:01:07;;;;;;;10.82;9.65;;;768.40;2099.20;;;;;;5030570;28;20029;-59
2023/05/30 06:03:32;;;;;;;11.68;10.48;;;794.10;1920.00;;;;;;5029676;28;20033;-56
2023/05/30 06:05:58;;;;;;;13.43;12.13;;;794.20;1894.40;;;;;;5030400;28;20037;-56
2023/05/30 06:08:24;;;;;;;14.30;12.90;;;768.60;1868.80;;;;;;5030078;28;20472;-58
2023/05/30 06:10:50;;;;;;;16.65;14.80;;;743.00;1945.60;;;;;;5030342;28;20045;-66
2023/05/30 06:13:16;;;;;;;16.95;15.15;;;742.90;1920.00;;;;;;5030677;28;20029;-57
2023/05/30 06:15:42;;;;;;;15.95;13.63;;;717.40;1971.20;;;;;;5029990;28;20068;-56
2023/05/30 06:18:08;;;;;;;16.80;15.10;;;;;;;;;;5030581;28;20026;-58
2023/05/30 06:20:34;;;;;;;15.50;13.80;;;;;;;;;;5030662;28;20033;-61
2023/05/30 06:23:00;;;;;;;16.35;14.85;;;;;;;;;;5030386;28;20794;-62
2023/05/30 06:25:27;;;;;;;16.45;14.40;;;;;;;;;;5028749;28;20033;-65
2023/05/30 06:27:53;;;;;;;16.20;14.55;;;768.50;1868.80;;;;;;5028693;28;20037;-66
2023/05/30 06:30:19;;;;;;;16.88;15.07;;;793.60;1868.80;;;;;;5028845;28;20036;-66
2023/05/30 06:32:45;;;;;;;19.52;16.00;;;;;;;;;;5027998;28;20032;-66
2023/05/30 06:35:11;;;;;;;20.80;17.42;;;717.40;1945.60;;;;;;5028335;28;20041;-64
2023/05/30 06:37:36;;;;;;;18.90;17.10;;;717.50;1971.20;;;;;;5028608;28;20021;-74
2023/05/30 06:40:02;;;;;;;17.42;15.65;;;768.60;1894.40;;;;;;5028115;28;20060;-63
2023/05/30 06:42:28;;;;;;;17.05;15.27;;;768.80;1868.80;;;;;;5028709;28;20033;-60
2023/05/30 06:44:54;;;;;;;31.77;28.33;;;768.90;1868.80;;;;;;5028532;28;20521;-62
2023/05/30 06:47:20;;;;;;;18.10;16.25;;;768.40;1894.40;;;;;;5028222;28;20072;-62
2023/05/30 06:49:45;;;;;;;17.80;16.05;;;743.30;1894.40;;;;;;5028640;28;20243;-64
2023/05/30 06:52:11;;;;;;;17.98;16.20;;;742.50;1920.00;;;;;;5028057;28;20017;-58
2023/05/30 06:54:37;;;;;;;16.70;15.13;;;692.10;1996.80;;;;;;5028576;28;20403;-60
2023/05/30 06:57:04;;;;;;;18.73;16.65;;;;;;;;;;5028458;28;20022;-66
2023/05/30 06:59:30;;;;;;;16.80;15.05;;;691.50;2048.00;;;;;;5028146;28;20033;-68
2023/05/30 07:01:56;;;;;;;18.48;15.85;;;666.50;2073.60;;;;;;5027933;28;20041;-69
2023/05/30 07:04:23;;;;;;;17.00;15.30;;;691.40;2073.60;;;;;;5027475;28;20033;-74
2023/05/30 07:06:49;;;;;;;16.65;15.07;;;;;;;;;;5028116;28;20040;-72
2023/05/30 07:09:15;;;;;;;16.88;14.82;;;743.00;1920.00;;;;;;5028020;28;20492;-74
2023/05/30 07:11:41;;;;;;;16.60;14.90;;;743.00;1920.00;;;;;;5027949;28;20021;-60
2023/05/30 07:14:06;;;;;;;17.77;15.98;;;768.10;1971.20;;;;;;5028462;28;20067;-60
2023/05/30 07:16:32;;;;;;;17.80;16.10;;;743.30;1971.20;;;;;;5028054;28;20021;-63
2023/05/30 07:18:58;;;;;;;16.98;15.48;;;794.20;1817.60;;;;;;5027510;28;20029;-68
2023/05/30 07:21:26;;;;;;;15.32;13.88;;;845.10;1766.40;;;;;;5027791;28;20033;-66
2023/05/30 07:23:52;;;;;;;14.88;13.57;;;845.40;1740.80;;;;;;5027742;28;20041;-74
2023/05/30 07:26:18;;;;;;;16.60;15.07;;;;;;;;;;5028351;28;20071;-61
2023/05/30 07:28:44;;;;;;;14.40;12.95;;;871.10;1612.80;;;;;;5026886;28;20508;-60
2023/05/30 07:31:10;;;;;;;13.48;12.32;;;973.70;1433.60;;;;;;5027473;28;20061;-64
2023/05/30 07:33:35;;;;;;;14.85;13.45;;;1024.20;1382.40;;;;;;5028001;28;20112;-58
2023/05/30 07:36:01;;;;;;;13.85;12.75;;;1075.20;1280.00;;;;;;5027695;28;20112;-58
2023/05/30 07:38:27;;;;;;;14.43;13.25;;;1101.10;1228.80;;;;;;5027972;28;20570;-57
2023/05/30 07:40:52;;;;;;;15.57;14.27;;;1126.70;1177.60;;;;;;5028022;28;20028;-59
2023/05/30 07:43:18;;;;;;;15.13;14.00;;;1152.40;1126.40;;;;;;5027578;28;20479;-59
2023/05/30 07:45:44;;;;;;;14.38;13.35;;;1177.70;1075.20;;;;;;5027282;28;20379;-69
2023/05/30 07:48:10;;;;;;;14.90;13.70;;;1152.70;1126.40;;;;;;5027237;28;20022;-63
2023/05/30 07:50:35;;;;;;;15.07;13.85;;;1178.20;1075.20;;;;;;5027242;28;20025;-62
2023/05/30 07:53:01;;;;;;;23.52;21.83;;;1203.70;1049.60;;;;;;5026911;28;20020;-59
2023/05/30 07:55:27;;;;;;;15.45;14.02;;;1152.40;1100.80;;;;;;5027536;28;20487;-62
2023/05/30 07:57:53;;;;;;;13.82;12.77;;;1075.90;1152.00;;;;;;5025857;28;20025;-59
2023/05/30 08:00:19;;;;;;;14.75;13.38;;;1101.50;1126.40;;;;;;5027415;28;20037;-59
2023/05/30 08:02:44;;;;;;;15.63;14.23;;;1101.40;1126.40;;;;;;5013717;28;20471;-59
2023/05/30 08:05:10;;;;;;;15.57;14.38;;;1101.10;1177.60;;;;;;5025492;28;20506;-59
2023/05/30 08:07:36;;;;;;;14.38;13.27;;;1076.10;1126.40;;;;;;5027389;28;20025;-65
2023/05/30 08:10:02;;;;;;;15.18;13.95;;;998.80;1228.80;;;;;;5026637;28;20029;-58
2023/05/30 08:12:29;;;;;;;16.67;14.82;;;921.70;1382.40;;;;;;5027682;28;20064;-59
2023/05/30 08:14:57;;;;;;;19.73;15.43;;;947.40;1305.60;;;;;;5028336;28;20018;-59
2023/05/30 08:17:24;;;;;;;16.95;15.43;;;921.90;1382.40;;;;;;5016505;28;20030;-58
2023/05/30 08:19:52;;;;;;;16.88;15.50;;;845.30;1484.80;;;;;;5008679;28;20062;-61
2023/05/30 08:22:21;;;;;;;16.70;15.35;;;845.00;1510.40;;;;;;5021067;28;20025;-58
2023/05/30 08:24:53;;;;;;;16.80;15.23;;;845.10;1536.00;;;;;;5028087;28;20496;-57
2023/05/30 08:27:20;;;;;;;17.40;15.70;;;793.80;1587.20;;;;;;5024663;28;20022;-62
2023/05/30 08:29:48;;;;;;;17.23;15.75;;;768.90;1612.80;;;;;;5017241;28;20472;-60
2023/05/30 08:32:14;;;;;;;17.80;16.05;;;768.10;1638.40;;;;;;5028144;28;20025;-58
2023/05/30 08:34:40;;;;;;;17.38;15.93;;;768.50;1664.00;;;;;;5027726;28;20091;-58
2023/05/30 08:37:06;;;;;;;18.92;16.67;;;793.60;1638.40;;;;;;5028261;28;20026;-58
2023/05/30 08:39:33;;;;;;;18.25;16.63;;;793.80;1638.40;;;;;;5029297;28;20045;-57
2023/05/30 08:42:00;;;;;;;17.42;15.82;;;794.00;1689.60;;;;;;5032067;28;20021;-58
2023/05/30 08:44:27;;;;;;;18.23;16.55;;;794.00;1638.40;;;;;;5032467;28;20108;-58
2023/05/30 08:46:53;;;;;;;18.77;17.05;;;793.70;1664.00;;;;;;5032285;28;20029;-57
2023/05/30 08:49:22;;;;;;;21.08;17.83;;;793.80;1689.60;;;;;;5032111;28;20108;-65
2023/05/30 08:51:48;;;;;;;19.20;17.15;;;768.90;1638.40;;;;;;5032373;28;20061;-57
2023/05/30 08:54:22;;;;;;;18.77;17.05;;;768.40;1664.00;;;;;;5032457;28;20044;-57
2023/05/30 08:57:26;;;;;;;18.88;17.17;;;768.30;1689.60;;;;;;5032075;28;20029;-59
2023/05/30 08:59:55;;;;;;;19.13;17.13;;;768.00;1689.60;;;;;;5029161;28;20072;-71
2023/05/30 09:02:21;;;;;;;17.77;16.13;;;768.60;1715.20;;;;;;5026287;28;20037;-57
2023/05/30 09:04:49;;;;;;;20.63;18.90;;;768.30;1689.60;;;;;;5028881;28;20115;-57
2023/05/30 09:07:15;;;;;;;20.95;18.98;;;;;;;;;;5028630;28;20033;-57
2023/05/30 09:09:42;;;;;;;19.40;17.75;;;768.10;1740.80;;;;;;5029175;28;20080;-60
2023/05/30 09:12:11;;;;;;;21.48;19.60;;;743.10;1715.20;;;;;;5029732;28;20475;-57
2023/05/30 09:14:37;;;;;;;21.77;19.92;;;743.30;1766.40;;;;;;5029392;28;20029;-57
2023/05/30 09:17:03;;;;;;;19.80;17.85;;;768.10;1740.80;;;;;;5029293;28;20352;-57
2023/05/30 09:19:29;;;;;;;18.58;16.85;;;742.90;1740.80;;;;;;5029193;28;20459;-57
2023/05/30 09:21:56;;;;;;;19.67;18.00;;;742.70;1740.80;;;;;;5029427;28;20032;-57
2023/05/30 09:24:21;;;;;;;20.05;18.35;;;742.60;1766.40;;;;;;5029134;28;20120;-57
2023/05/30 09:26:58;;;;;;;22.55;20.60;;;717.70;1740.80;;;;;;5029244;28;20104;-56
2023/05/30 09:29:25;;;;;;;22.73;20.58;;;742.90;1766.40;;;;;;5027714;28;20511;-57
2023/05/30 09:31:52;;;;;;;21.27;19.35;;;742.60;1792.00;;;;;;5028194;28;20068;-57
2023/05/30 09:34:18;;;;;;;22.90;20.95;;;742.60;1792.00;;;;;;5028433;28;20029;-69
2023/05/30 09:36:54;;;;;;;25.00;21.77;;;742.50;1868.80;;;;;;5018896;28;20083;-69
2023/05/30 09:39:20;;;;;;;22.90;20.95;;;691.90;1843.20;;;;;;5030764;28;20045;-65
2023/05/30 09:41:46;;;;;;;22.35;20.45;;;717.10;1817.60;;;;;;5031111;28;20026;-72
2023/05/30 09:44:12;;;;;;;22.73;20.73;;;716.90;1868.80;;;;;;5031274;28;20119;-62
2023/05/30 09:46:38;;;;;;;22.58;20.48;;;717.10;1843.20;;;;;;5031152;28;20380;-56
2023/05/30 09:49:13;;;;;;;27.27;19.15;;;717.50;1817.60;;;;;;5031087;28;20029;-57
2023/05/30 09:51:40;;;;;;;20.15;18.30;;;717.40;1843.20;;;;;;5030317;28;20120;-56
2023/05/30 09:54:07;;;;;;;20.92;19.10;;;717.40;1792.00;;;;;;5031163;28;20021;-61
2023/05/30 09:56:37;;;;;;;21.35;19.33;;;717.30;1766.40;;;;;;5030939;28;20022;-58
2023/05/30 09:59:09;;;;;;;21.20;19.40;;;717.10;1843.20;;;;;;5031129;28;20049;-67
2023/05/30 10:01:42;;;;;;;21.77;19.98;;;717.50;1868.80;;;;;;5030712;28;20017;-57
2023/05/30 10:04:15;;;;;;;22.88;20.58;;;717.70;1817.60;;;;;;5030832;28;20052;-58
2023/05/30 10:06:51;;;;;;;;;;;717.60;1792.00;;;;;;5031303;28;20022;-59
2023/05/30 10:09:22;;;;;;;21.55;19.65;;;742.60;1894.40;;;;;;5030802;28;20008;-64
2023/05/30 10:11:49;;;;;;;22.38;20.52;;;742.50;1868.80;;;;;;5030882;28;20091;-56
2023/05/30 10:14:15;;;;;;;19.10;17.48;;;742.80;1817.60;;;;;;5030905;28;20087;-56
2023/05/30 10:16:49;;;;;;;19.33;17.33;;;717.70;1792.00;;;;;;5030358;28;20036;-57
2023/05/30 10:19:25;;;;;;;18.38;16.67;;;717.40;1792.00;;;;;;5030453;28;20022;-56
2023/05/30 10:21:54;;;;;;;18.70;16.83;;;717.40;1792.00;;;;;;5030163;28;20031;-57
2023/05/30 10:24:20;;;;;;;18.83;17.20;;;717.40;1843.20;;;;;;5030969;28;20033;-59
2023/05/30 10:26:55;;;;;;;18.25;16.67;;;717.30;1868.80;;;;;;5030701;28;20026;-57
2023/05/30 10:29:24;;;;;;;20.90;18.88;;;717.20;1843.20;;;;;;5030874;28;20501;-58
2023/05/30 10:31:53;;;;;;;21.90;20.08;;;717.70;1792.00;;;;;;5030489;28;20021;-60
2023/05/30 10:34:25;;;;;;;19.38;17.45;;;717.00;1843.20;;;;;;5030354;28;20032;-57
2023/05/30 10:36:51;;;;;;;21.50;19.35;;;692.00;1843.20;;;;;;5029987;28;20480;-58
2023/05/30 10:39:48;;;;;;;20.27;18.40;;;691.80;1868.80;;;;;;5030200;28;20136;-56
2023/05/30 10:42:54;;;;;;;19.23;17.33;;;691.40;1920.00;;;;;;5030252;28;20818;-56
2023/05/30 10:45:27;;;;;;;20.90;19.17;;;691.50;1894.40;;;;;;5016428;28;20137;-56
2023/05/30 10:48:05;;;;;;;19.75;17.85;;;691.80;1868.80;;;;;;5027762;28;20049;-60
2023/05/30 10:50:39;;;;;;;21.25;19.02;;;692.10;1817.60;;;;;;5027734;28;20033;-57
2023/05/30 10:53:18;;;;;;;17.52;15.95;;;692.10;1894.40;;;;;;5027421;28;20446;-57
2023/05/30 10:55:49;;;;;;;18.75;17.02;;;692.00;1843.20;;;;;;5027412;28;20123;-57
2023/05/30 10:58:36;;;;;;;17.42;15.73;;;716.90;1868.80;;;;;;5027453;28;20164;-57
2023/05/30 11:01:40;;;;;;;19.52;17.60;;;691.90;1843.20;;;;;;5027191;28;20028;-57
2023/05/30 11:04:13;;;;;;;20.20;18.23;;;691.50;1894.40;;;;;;4930175;29;20044;-56
2023/05/30 11:06:43;;;;;;;;;;;691.60;1894.40;;;;;;4930835;29;20031;-67
2023/05/30 11:09:11;;;;;;;17.58;15.88;;;692.10;1894.40;;;;;;4930338;29;19910;-67
2023/05/30 11:11:42;;;;;;;18.27;16.45;;;691.90;1843.20;;;;;;4929845;29;20553;-58
2023/05/30 11:14:10;;;;;;;17.50;15.75;;;692.10;1817.60;;;;;;4929689;29;20031;-69
2023/05/30 11:16:54;;;;;;;17.10;15.55;;;717.20;1843.20;;;;;;4929330;29;20035;-70
2023/05/30 11:19:27;;;;;;;16.80;15.05;;;717.60;1843.20;;;;;;4930250;29;20123;-57
2023/05/30 11:22:04;;;;;;;17.38;15.65;;;716.90;1817.60;;;;;;4935513;29;20031;-72
2023/05/30 11:24:31;;;;;;;16.65;15.00;;;716.90;1817.60;;;;;;4949106;29;20121;-63
2023/05/30 11:27:05;;;;;;;16.67;14.18;;;717.40;1843.20;;;;;;4948943;29;20023;-66
2023/05/30 11:29:54;;;;;;;23.77;21.27;;;717.00;1817.60;;;;;;4948856;28;20082;-56
2023/05/30 11:32:24;;;;;;;15.88;14.52;;;691.60;1843.20;;;;;;4937150;29;20067;-57
2023/05/30 11:35:01;;;;;;;16.60;14.93;;;692.10;1843.20;;;;;;4988534;28;20558;-56
2023/05/30 11:37:35;;;;;;;15.93;14.52;;;691.50;1843.20;;;;;;5029096;28;20431;-56
2023/05/30 11:40:01;;;;;;;17.23;15.73;;;666.40;1868.80;;;;;;5028735;28;20041;-57
2023/05/30 11:42:28;;;;;;;15.77;14.25;;;666.00;1894.40;;;;;;5029264;28;20063;-57
2023/05/30 11:44:54;;;;;;;15.73;14.30;;;665.80;1920.00;;;;;;5029268;28;20107;-57
2023/05/30 11:47:20;;;;;;;14.77;13.43;;;666.50;1868.80;;;;;;5029057;28;20084;-57
2023/05/30 11:49:46;;;;;;;14.10;12.80;;;666.30;1868.80;;;;;;5028973;28;20030;-56
2023/05/30 11:52:14;;;;;;;13.55;12.35;;;691.30;1792.00;;;;;;5028650;28;20024;-56
2023/05/30 11:54:41;;;;;;;14.52;13.30;;;691.70;1792.00;;;;;;5029083;28;20025;-58
2023/05/30 11:57:08;;;;;;;14.98;13.57;;;691.80;1817.60;;;;;;5029212;28;20060;-66
2023/05/30 11:59:34;;;;;;;16.13;14.45;;;716.80;1843.20;;;;;;5028704;28;20494;-71
2023/05/30 12:02:01;;;;;;;15.02;13.63;;;716.80;1817.60;;;;;;5029069;28;20105;-66
2023/05/30 12:04:29;;;;;;;17.23;15.50;;;717.10;1843.20;;;;;;5028721;28;20064;-73
2023/05/30 12:07:00;;;;;;;21.52;17.15;;;716.80;1894.40;;;;;;5028584;28;20168;-63
2023/05/30 12:09:27;;;;;;;16.95;15.48;;;691.90;1868.80;;;;;;5028692;28;20026;-73
2023/05/30 12:12:00;;;;;;;17.70;16.20;;;717.00;1894.40;;;;;;5028953;28;20028;-58